sensor_id;sensor_type;location;lat;lon;timestamp;temperature;humidity
76787;DHT22;65739;51.482;5.702;2023-06-19T00:00:02;22.40;99.90
76787;DHT22;65739;51.482;5.702;2023-06-19T00:02:32;22.40;99.90
76787;DHT22;65739;51.482;5.702;2023-06-19T00:04:58;22.30;99.90
76787;DHT22;65739;51.482;5.702;2023-06-19T00:07:23;22.30;99.90
76787;DHT22;65739;51.482;5.702;2023-06-19T00:09:49;22.30;99.90
76787;DHT22;65739;51.482;5.702;2023-06-19T00:12:14;22.30;99.90
76787;DHT22;65739;51.482;5.702;2023-06-19T00:14:40;22.30;99.90
76787;DHT22;65739;51.482;5.702;2023-06-19T00:17:05;22.30;99.90
76787;DHT22;65739;51.482;5.702;2023-06-19T00:19:32;22.30;99.90
76787;DHT22;65739;51.482;5.702;2023-06-19T00:22:02;22.20;99.90
76787;DHT22;65739;51.482;5.702;2023-06-19T00:24:28;22.20;99.90
76787;DHT22;65739;51.482;5.702;2023-06-19T00:26:53;22.20;99.90
76787;DHT22;65739;51.482;5.702;2023-06-19T00:29:19;22.20;99.90
76787;DHT22;65739;51.482;5.702;2023-06-19T00:31:44;22.20;99.90
76787;DHT22;65739;51.482;5.702;2023-06-19T00:34:10;22.20;99.90
76787;DHT22;65739;51.482;5.702;2023-06-19T00:36:35;22.10;99.90
76787;DHT22;65739;51.482;5.702;2023-06-19T00:39:06;22.10;99.90
76787;DHT22;65739;51.482;5.702;2023-06-19T00:41:34;22.00;99.90
76787;DHT22;65739;51.482;5.702;2023-06-19T00:44:00;22.00;99.90
76787;DHT22;65739;51.482;5.702;2023-06-19T00:46:26;21.90;99.90
76787;DHT22;65739;51.482;5.702;2023-06-19T00:48:51;21.90;99.90
76787;DHT22;65739;51.482;5.702;2023-06-19T00:51:17;21.80;99.90
76787;DHT22;65739;51.482;5.702;2023-06-19T00:53:43;21.80;99.90
76787;DHT22;65739;51.482;5.702;2023-06-19T00:56:08;21.70;99.90
76787;DHT22;65739;51.482;5.702;2023-06-19T00:58:34;21.70;99.90
76787;DHT22;65739;51.482;5.702;2023-06-19T01:01:00;21.60;99.90
76787;DHT22;65739;51.482;5.702;2023-06-19T01:03:26;21.50;99.90
76787;DHT22;65739;51.482;5.702;2023-06-19T01:05:53;21.40;99.90
76787;DHT22;65739;51.482;5.702;2023-06-19T01:11:06;21.30;99.90
76787;DHT22;65739;51.482;5.702;2023-06-19T01:13:34;21.10;99.90
76787;DHT22;65739;51.482;5.702;2023-06-19T01:16:03;21.10;99.90
76787;DHT22;65739;51.482;5.702;2023-06-19T01:18:30;21.10;99.90
76787;DHT22;65739;51.482;5.702;2023-06-19T01:20:57;21.10;99.90
76787;DHT22;65739;51.482;5.702;2023-06-19T01:23:22;21.10;99.90
76787;DHT22;65739;51.482;5.702;2023-06-19T01:25:48;21.20;99.90
76787;DHT22;65739;51.482;5.702;2023-06-19T01:28:14;21.20;99.90
76787;DHT22;65739;51.482;5.702;2023-06-19T01:30:41;21.20;99.90
76787;DHT22;65739;51.482;5.702;2023-06-19T01:33:22;21.10;99.90
76787;DHT22;65739;51.482;5.702;2023-06-19T01:35:51;21.00;99.90
76787;DHT22;65739;51.482;5.702;2023-06-19T01:38:21;21.00;99.90
76787;DHT22;65739;51.482;5.702;2023-06-19T01:40:49;20.90;99.90
76787;DHT22;65739;51.482;5.702;2023-06-19T01:43:16;20.80;99.90
76787;DHT22;65739;51.482;5.702;2023-06-19T01:45:42;20.80;99.90
76787;DHT22;65739;51.482;5.702;2023-06-19T01:48:08;20.70;99.90
76787;DHT22;65739;51.482;5.702;2023-06-19T01:50:33;20.60;99.90
76787;DHT22;65739;51.482;5.702;2023-06-19T01:52:59;20.60;99.90
76787;DHT22;65739;51.482;5.702;2023-06-19T01:55:25;20.50;99.90
76787;DHT22;65739;51.482;5.702;2023-06-19T01:57:50;20.30;99.90
76787;DHT22;65739;51.482;5.702;2023-06-19T02:00:17;20.30;99.90
76787;DHT22;65739;51.482;5.702;2023-06-19T02:02:42;20.20;99.90
76787;DHT22;65739;51.482;5.702;2023-06-19T02:05:08;20.10;99.90
76787;DHT22;65739;51.482;5.702;2023-06-19T02:07:33;20.10;99.90
76787;DHT22;65739;51.482;5.702;2023-06-19T02:09:59;19.90;99.90
76787;DHT22;65739;51.482;5.702;2023-06-19T02:12:24;19.90;99.90
76787;DHT22;65739;51.482;5.702;2023-06-19T02:14:50;19.80;99.90
76787;DHT22;65739;51.482;5.702;2023-06-19T02:17:16;19.80;99.90
76787;DHT22;65739;51.482;5.702;2023-06-19T02:19:41;19.80;99.90
76787;DHT22;65739;51.482;5.702;2023-06-19T02:22:08;19.70;99.90
76787;DHT22;65739;51.482;5.702;2023-06-19T02:24:33;19.70;99.90
76787;DHT22;65739;51.482;5.702;2023-06-19T02:26:59;19.70;99.90
76787;DHT22;65739;51.482;5.702;2023-06-19T02:29:25;19.70;99.90
76787;DHT22;65739;51.482;5.702;2023-06-19T02:31:50;19.70;99.90
76787;DHT22;65739;51.482;5.702;2023-06-19T02:34:16;19.70;99.90
76787;DHT22;65739;51.482;5.702;2023-06-19T02:36:42;19.70;99.90
76787;DHT22;65739;51.482;5.702;2023-06-19T02:39:08;19.60;99.90
76787;DHT22;65739;51.482;5.702;2023-06-19T02:41:34;19.60;99.90
76787;DHT22;65739;51.482;5.702;2023-06-19T02:44:00;19.60;99.90
76787;DHT22;65739;51.482;5.702;2023-06-19T02:46:26;19.70;99.90
76787;DHT22;65739;51.482;5.702;2023-06-19T02:48:51;19.70;99.90
76787;DHT22;65739;51.482;5.702;2023-06-19T02:51:17;19.60;99.90
76787;DHT22;65739;51.482;5.702;2023-06-19T02:53:42;19.60;99.90
76787;DHT22;65739;51.482;5.702;2023-06-19T02:56:11;19.50;99.90
76787;DHT22;65739;51.482;5.702;2023-06-19T02:58:37;19.40;99.90
76787;DHT22;65739;51.482;5.702;2023-06-19T03:01:03;19.30;99.90
76787;DHT22;65739;51.482;5.702;2023-06-19T03:03:29;19.20;99.90
76787;DHT22;65739;51.482;5.702;2023-06-19T03:05:55;19.10;99.90
76787;DHT22;65739;51.482;5.702;2023-06-19T03:08:20;19.00;99.90
76787;DHT22;65739;51.482;5.702;2023-06-19T03:10:46;19.00;99.90
76787;DHT22;65739;51.482;5.702;2023-06-19T03:13:12;19.00;99.90
76787;DHT22;65739;51.482;5.702;2023-06-19T03:15:38;18.90;99.90
76787;DHT22;65739;51.482;5.702;2023-06-19T03:18:04;18.90;99.90
76787;DHT22;65739;51.482;5.702;2023-06-19T03:20:32;18.80;99.90
76787;DHT22;65739;51.482;5.702;2023-06-19T03:22:58;18.80;99.90
76787;DHT22;65739;51.482;5.702;2023-06-19T03:25:23;18.80;99.90
76787;DHT22;65739;51.482;5.702;2023-06-19T03:27:49;18.80;99.90
76787;DHT22;65739;51.482;5.702;2023-06-19T03:30:14;18.80;99.90
76787;DHT22;65739;51.482;5.702;2023-06-19T03:32:43;18.70;99.90
76787;DHT22;65739;51.482;5.702;2023-06-19T03:35:09;18.80;99.90
76787;DHT22;65739;51.482;5.702;2023-06-19T03:37:35;18.80;99.90
76787;DHT22;65739;51.482;5.702;2023-06-19T03:40:01;18.80;99.90
76787;DHT22;65739;51.482;5.702;2023-06-19T03:42:28;18.90;99.90
76787;DHT22;65739;51.482;5.702;2023-06-19T03:44:54;18.90;99.90
76787;DHT22;65739;51.482;5.702;2023-06-19T03:47:21;18.90;99.90
76787;DHT22;65739;51.482;5.702;2023-06-19T03:49:46;18.90;99.90
76787;DHT22;65739;51.482;5.702;2023-06-19T03:52:13;19.00;99.90
76787;DHT22;65739;51.482;5.702;2023-06-19T03:54:39;19.00;99.90
76787;DHT22;65739;51.482;5.702;2023-06-19T03:57:05;19.00;99.90
76787;DHT22;65739;51.482;5.702;2023-06-19T03:59:31;19.10;99.90
76787;DHT22;65739;51.482;5.702;2023-06-19T04:01:57;19.10;99.90
76787;DHT22;65739;51.482;5.702;2023-06-19T04:04:22;19.00;99.90
76787;DHT22;65739;51.482;5.702;2023-06-19T04:06:48;19.00;99.90
76787;DHT22;65739;51.482;5.702;2023-06-19T04:09:13;19.00;99.90
76787;DHT22;65739;51.482;5.702;2023-06-19T04:11:39;18.90;99.90
76787;DHT22;65739;51.482;5.702;2023-06-19T04:14:04;19.00;99.90
76787;DHT22;65739;51.482;5.702;2023-06-19T04:16:30;19.10;99.90
76787;DHT22;65739;51.482;5.702;2023-06-19T04:18:55;19.10;99.90
76787;DHT22;65739;51.482;5.702;2023-06-19T04:21:21;19.20;99.90
76787;DHT22;65739;51.482;5.702;2023-06-19T04:23:46;19.20;99.90
76787;DHT22;65739;51.482;5.702;2023-06-19T04:26:12;19.30;99.90
76787;DHT22;65739;51.482;5.702;2023-06-19T04:28:37;19.30;99.90
76787;DHT22;65739;51.482;5.702;2023-06-19T04:31:04;19.30;99.90
76787;DHT22;65739;51.482;5.702;2023-06-19T04:33:29;19.40;99.90
76787;DHT22;65739;51.482;5.702;2023-06-19T04:35:55;19.40;99.90
76787;DHT22;65739;51.482;5.702;2023-06-19T04:38:21;19.40;99.90
76787;DHT22;65739;51.482;5.702;2023-06-19T04:40:53;19.50;99.90
76787;DHT22;65739;51.482;5.702;2023-06-19T04:43:19;19.50;99.90
76787;DHT22;65739;51.482;5.702;2023-06-19T04:45:45;19.50;99.90
76787;DHT22;65739;51.482;5.702;2023-06-19T04:48:10;19.50;99.90
76787;DHT22;65739;51.482;5.702;2023-06-19T04:50:37;19.40;99.90
76787;DHT22;65739;51.482;5.702;2023-06-19T04:53:02;19.40;99.90
76787;DHT22;65739;51.482;5.702;2023-06-19T04:55:28;19.50;99.90
76787;DHT22;65739;51.482;5.702;2023-06-19T04:57:53;19.50;99.90
76787;DHT22;65739;51.482;5.702;2023-06-19T05:00:19;19.60;99.90
76787;DHT22;65739;51.482;5.702;2023-06-19T05:02:45;19.60;99.90
76787;DHT22;65739;51.482;5.702;2023-06-19T05:05:13;19.60;99.90
76787;DHT22;65739;51.482;5.702;2023-06-19T05:07:39;19.70;99.90
76787;DHT22;65739;51.482;5.702;2023-06-19T05:10:05;19.70;99.90
76787;DHT22;65739;51.482;5.702;2023-06-19T05:12:31;19.70;99.90
76787;DHT22;65739;51.482;5.702;2023-06-19T05:14:57;19.70;99.90
76787;DHT22;65739;51.482;5.702;2023-06-19T05:17:22;19.80;99.90
76787;DHT22;65739;51.482;5.702;2023-06-19T05:19:48;19.80;99.90
76787;DHT22;65739;51.482;5.702;2023-06-19T05:22:13;19.90;99.90
76787;DHT22;65739;51.482;5.702;2023-06-19T05:24:39;19.80;99.90
76787;DHT22;65739;51.482;5.702;2023-06-19T05:27:05;19.90;99.90
76787;DHT22;65739;51.482;5.702;2023-06-19T05:29:31;20.00;99.90
76787;DHT22;65739;51.482;5.702;2023-06-19T05:31:57;20.00;99.90
76787;DHT22;65739;51.482;5.702;2023-06-19T05:34:22;20.00;99.90
76787;DHT22;65739;51.482;5.702;2023-06-19T05:36:48;20.10;99.90
76787;DHT22;65739;51.482;5.702;2023-06-19T05:39:14;20.00;99.90
76787;DHT22;65739;51.482;5.702;2023-06-19T05:41:40;20.00;99.90
76787;DHT22;65739;51.482;5.702;2023-06-19T05:44:05;20.00;99.90
76787;DHT22;65739;51.482;5.702;2023-06-19T05:46:31;19.90;99.90
76787;DHT22;65739;51.482;5.702;2023-06-19T05:48:56;20.10;99.90
76787;DHT22;65739;51.482;5.702;2023-06-19T05:51:22;20.30;99.90
76787;DHT22;65739;51.482;5.702;2023-06-19T05:53:47;20.30;99.90
76787;DHT22;65739;51.482;5.702;2023-06-19T05:56:15;20.50;99.90
76787;DHT22;65739;51.482;5.702;2023-06-19T05:58:40;20.40;99.90
76787;DHT22;65739;51.482;5.702;2023-06-19T06:01:06;20.50;99.90
76787;DHT22;65739;51.482;5.702;2023-06-19T06:03:32;20.60;99.90
76787;DHT22;65739;51.482;5.702;2023-06-19T06:05:57;20.70;99.90
76787;DHT22;65739;51.482;5.702;2023-06-19T06:08:31;20.60;99.90
76787;DHT22;65739;51.482;5.702;2023-06-19T06:10:57;20.70;99.90
76787;DHT22;65739;51.482;5.702;2023-06-19T06:13:23;20.70;99.90
76787;DHT22;65739;51.482;5.702;2023-06-19T06:15:49;20.70;99.90
76787;DHT22;65739;51.482;5.702;2023-06-19T06:18:14;20.50;99.90
76787;DHT22;65739;51.482;5.702;2023-06-19T06:20:40;20.40;99.90
76787;DHT22;65739;51.482;5.702;2023-06-19T06:23:06;20.20;99.90
76787;DHT22;65739;51.482;5.702;2023-06-19T06:25:31;20.20;99.90
76787;DHT22;65739;51.482;5.702;2023-06-19T06:27:56;20.20;99.90
76787;DHT22;65739;51.482;5.702;2023-06-19T06:30:22;20.20;99.90
76787;DHT22;65739;51.482;5.702;2023-06-19T06:32:49;20.30;99.90
76787;DHT22;65739;51.482;5.702;2023-06-19T06:35:16;20.50;99.90
76787;DHT22;65739;51.482;5.702;2023-06-19T06:37:41;20.70;99.90
76787;DHT22;65739;51.482;5.702;2023-06-19T06:40:08;21.00;99.90
76787;DHT22;65739;51.482;5.702;2023-06-19T06:42:36;20.90;99.90
76787;DHT22;65739;51.482;5.702;2023-06-19T06:45:03;21.00;99.90
76787;DHT22;65739;51.482;5.702;2023-06-19T06:47:29;21.20;99.90
76787;DHT22;65739;51.482;5.702;2023-06-19T06:49:55;21.40;99.90
76787;DHT22;65739;51.482;5.702;2023-06-19T06:52:20;21.60;99.90
76787;DHT22;65739;51.482;5.702;2023-06-19T06:54:46;21.50;99.90
76787;DHT22;65739;51.482;5.702;2023-06-19T06:57:11;21.60;99.90
76787;DHT22;65739;51.482;5.702;2023-06-19T06:59:37;21.80;99.90
76787;DHT22;65739;51.482;5.702;2023-06-19T07:02:02;21.80;99.90
76787;DHT22;65739;51.482;5.702;2023-06-19T07:04:28;21.80;99.90
76787;DHT22;65739;51.482;5.702;2023-06-19T07:06:54;21.80;99.90
76787;DHT22;65739;51.482;5.702;2023-06-19T07:09:19;21.70;99.90
76787;DHT22;65739;51.482;5.702;2023-06-19T07:11:46;21.70;99.90
76787;DHT22;65739;51.482;5.702;2023-06-19T07:14:12;21.70;99.90
76787;DHT22;65739;51.482;5.702;2023-06-19T07:16:37;21.50;99.90
76787;DHT22;65739;51.482;5.702;2023-06-19T07:19:03;21.40;99.90
76787;DHT22;65739;51.482;5.702;2023-06-19T07:21:29;21.60;99.90
76787;DHT22;65739;51.482;5.702;2023-06-19T07:23:55;21.80;99.90
76787;DHT22;65739;51.482;5.702;2023-06-19T07:26:21;21.70;99.90
76787;DHT22;65739;51.482;5.702;2023-06-19T07:28:47;21.80;99.90
76787;DHT22;65739;51.482;5.702;2023-06-19T07:31:12;21.90;99.90
76787;DHT22;65739;51.482;5.702;2023-06-19T07:33:38;22.00;99.90
76787;DHT22;65739;51.482;5.702;2023-06-19T07:36:04;22.20;99.90
76787;DHT22;65739;51.482;5.702;2023-06-19T07:38:29;22.30;99.90
76787;DHT22;65739;51.482;5.702;2023-06-19T07:40:55;22.60;99.90
76787;DHT22;65739;51.482;5.702;2023-06-19T07:43:20;22.70;99.90
76787;DHT22;65739;51.482;5.702;2023-06-19T07:45:48;22.80;99.90
76787;DHT22;65739;51.482;5.702;2023-06-19T07:48:14;23.10;99.90
76787;DHT22;65739;51.482;5.702;2023-06-19T07:50:39;23.20;99.90
76787;DHT22;65739;51.482;5.702;2023-06-19T07:53:05;23.10;99.90
76787;DHT22;65739;51.482;5.702;2023-06-19T07:55:31;23.20;99.90
76787;DHT22;65739;51.482;5.702;2023-06-19T07:57:56;22.80;99.90
76787;DHT22;65739;51.482;5.702;2023-06-19T08:00:23;22.90;99.90
76787;DHT22;65739;51.482;5.702;2023-06-19T08:02:49;22.80;99.90
76787;DHT22;65739;51.482;5.702;2023-06-19T08:05:15;22.90;99.90
76787;DHT22;65739;51.482;5.702;2023-06-19T08:07:41;23.00;99.90
76787;DHT22;65739;51.482;5.702;2023-06-19T08:10:07;23.30;99.90
76787;DHT22;65739;51.482;5.702;2023-06-19T08:12:33;23.20;99.90
76787;DHT22;65739;51.482;5.702;2023-06-19T08:14:58;23.10;99.90
76787;DHT22;65739;51.482;5.702;2023-06-19T08:17:24;23.30;99.90
76787;DHT22;65739;51.482;5.702;2023-06-19T08:19:49;23.70;99.90
76787;DHT22;65739;51.482;5.702;2023-06-19T08:22:15;23.70;99.90
76787;DHT22;65739;51.482;5.702;2023-06-19T08:24:41;23.70;99.90
76787;DHT22;65739;51.482;5.702;2023-06-19T08:27:07;24.20;99.90
76787;DHT22;65739;51.482;5.702;2023-06-19T08:29:32;24.10;99.90
76787;DHT22;65739;51.482;5.702;2023-06-19T08:31:58;24.10;99.90
76787;DHT22;65739;51.482;5.702;2023-06-19T08:34:24;24.10;99.90
76787;DHT22;65739;51.482;5.702;2023-06-19T08:36:49;24.10;99.90
76787;DHT22;65739;51.482;5.702;2023-06-19T08:39:15;24.20;99.90
76787;DHT22;65739;51.482;5.702;2023-06-19T08:41:41;24.00;99.90
76787;DHT22;65739;51.482;5.702;2023-06-19T08:44:07;23.90;99.90
76787;DHT22;65739;51.482;5.702;2023-06-19T08:46:33;23.80;99.90
76787;DHT22;65739;51.482;5.702;2023-06-19T08:49:00;23.90;99.90
76787;DHT22;65739;51.482;5.702;2023-06-19T08:51:27;23.90;99.90
76787;DHT22;65739;51.482;5.702;2023-06-19T08:54:04;23.90;99.90
76787;DHT22;65739;51.482;5.702;2023-06-19T08:56:31;24.20;99.90
76787;DHT22;65739;51.482;5.702;2023-06-19T08:59:11;24.90;99.90
76787;DHT22;65739;51.482;5.702;2023-06-19T09:01:37;24.80;99.90
76787;DHT22;65739;51.482;5.702;2023-06-19T09:04:10;25.00;99.90
76787;DHT22;65739;51.482;5.702;2023-06-19T09:06:45;24.90;99.90
76787;DHT22;65739;51.482;5.702;2023-06-19T09:09:13;24.60;99.90
76787;DHT22;65739;51.482;5.702;2023-06-19T09:11:39;24.70;99.90
76787;DHT22;65739;51.482;5.702;2023-06-19T09:14:11;25.00;99.90
76787;DHT22;65739;51.482;5.702;2023-06-19T09:16:41;25.30;99.90
76787;DHT22;65739;51.482;5.702;2023-06-19T09:19:07;25.70;99.90
76787;DHT22;65739;51.482;5.702;2023-06-19T09:21:36;25.70;99.90
76787;DHT22;65739;51.482;5.702;2023-06-19T09:24:07;25.40;99.90
76787;DHT22;65739;51.482;5.702;2023-06-19T09:26:33;25.50;99.90
76787;DHT22;65739;51.482;5.702;2023-06-19T09:29:14;26.00;99.90
76787;DHT22;65739;51.482;5.702;2023-06-19T09:31:44;26.00;99.90
76787;DHT22;65739;51.482;5.702;2023-06-19T09:34:10;25.90;99.90
76787;DHT22;65739;51.482;5.702;2023-06-19T09:36:35;25.90;99.90
76787;DHT22;65739;51.482;5.702;2023-06-19T09:39:04;25.70;99.90
76787;DHT22;65739;51.482;5.702;2023-06-19T09:41:31;25.70;99.90
76787;DHT22;65739;51.482;5.702;2023-06-19T09:43:58;26.10;99.90
76787;DHT22;65739;51.482;5.702;2023-06-19T09:46:32;26.10;99.90
76787;DHT22;65739;51.482;5.702;2023-06-19T09:49:01;26.70;99.90
76787;DHT22;65739;51.482;5.702;2023-06-19T09:51:35;26.80;99.90
76787;DHT22;65739;51.482;5.702;2023-06-19T09:54:02;26.40;99.90
76787;DHT22;65739;51.482;5.702;2023-06-19T09:56:29;26.50;99.90
76787;DHT22;65739;51.482;5.702;2023-06-19T09:58:57;26.40;99.90
76787;DHT22;65739;51.482;5.702;2023-06-19T10:01:29;26.50;99.90
76787;DHT22;65739;51.482;5.702;2023-06-19T10:04:07;26.40;99.90
76787;DHT22;65739;51.482;5.702;2023-06-19T10:06:42;26.20;99.90
76787;DHT22;65739;51.482;5.702;2023-06-19T10:09:09;25.60;99.90
76787;DHT22;65739;51.482;5.702;2023-06-19T10:11:51;25.90;99.90
76787;DHT22;65739;51.482;5.702;2023-06-19T10:14:21;26.20;99.90
76787;DHT22;65739;51.482;5.702;2023-06-19T10:16:47;26.60;99.90
76787;DHT22;65739;51.482;5.702;2023-06-19T10:19:17;26.50;99.90
76787;DHT22;65739;51.482;5.702;2023-06-19T10:21:48;26.60;99.90
76787;DHT22;65739;51.482;5.702;2023-06-19T10:24:15;26.40;99.90
76787;DHT22;65739;51.482;5.702;2023-06-19T10:26:44;26.20;99.90
76787;DHT22;65739;51.482;5.702;2023-06-19T10:29:18;26.20;99.90
76787;DHT22;65739;51.482;5.702;2023-06-19T10:31:44;26.40;99.90
76787;DHT22;65739;51.482;5.702;2023-06-19T10:34:10;27.00;99.90
76787;DHT22;65739;51.482;5.702;2023-06-19T10:36:37;27.40;99.90
76787;DHT22;65739;51.482;5.702;2023-06-19T10:39:02;26.90;99.90
76787;DHT22;65739;51.482;5.702;2023-06-19T10:41:29;26.50;99.90
76787;DHT22;65739;51.482;5.702;2023-06-19T10:44:05;26.20;99.90
76787;DHT22;65739;51.482;5.702;2023-06-19T10:46:35;26.50;99.90
76787;DHT22;65739;51.482;5.702;2023-06-19T10:49:01;26.40;99.90
76787;DHT22;65739;51.482;5.702;2023-06-19T10:51:28;26.80;99.90
76787;DHT22;65739;51.482;5.702;2023-06-19T10:53:55;27.40;99.90
76787;DHT22;65739;51.482;5.702;2023-06-19T10:56:22;27.60;99.90
76787;DHT22;65739;51.482;5.702;2023-06-19T10:58:47;27.70;99.90
76787;DHT22;65739;51.482;5.702;2023-06-19T11:01:13;27.60;99.90
76787;DHT22;65739;51.482;5.702;2023-06-19T11:03:39;28.00;99.90
76787;DHT22;65739;51.482;5.702;2023-06-19T11:06:04;27.70;99.90
76787;DHT22;65739;51.482;5.702;2023-06-19T11:08:30;27.70;99.90
76787;DHT22;65739;51.482;5.702;2023-06-19T11:10:55;28.30;99.90
76787;DHT22;65739;51.482;5.702;2023-06-19T11:13:21;28.40;99.90
76787;DHT22;65739;51.482;5.702;2023-06-19T11:15:50;28.60;99.90
76787;DHT22;65739;51.482;5.702;2023-06-19T11:18:17;28.80;99.90
76787;DHT22;65739;51.482;5.702;2023-06-19T11:20:48;28.90;99.90
76787;DHT22;65739;51.482;5.702;2023-06-19T11:23:16;28.10;99.90
76787;DHT22;65739;51.482;5.702;2023-06-19T11:25:42;28.10;99.90
76787;DHT22;65739;51.482;5.702;2023-06-19T11:28:15;28.20;99.90
76787;DHT22;65739;51.482;5.702;2023-06-19T11:30:43;28.80;99.90
76787;DHT22;65739;51.482;5.702;2023-06-19T11:33:16;28.60;99.90
76787;DHT22;65739;51.482;5.702;2023-06-19T11:35:51;28.40;99.90
76787;DHT22;65739;51.482;5.702;2023-06-19T11:38:21;28.70;99.90
76787;DHT22;65739;51.482;5.702;2023-06-19T11:40:48;28.90;99.90
76787;DHT22;65739;51.482;5.702;2023-06-19T11:43:27;28.90;99.90
76787;DHT22;65739;51.482;5.702;2023-06-19T11:45:54;29.30;99.90
76787;DHT22;65739;51.482;5.702;2023-06-19T11:48:25;29.20;99.90
76787;DHT22;65739;51.482;5.702;2023-06-19T11:50:51;29.00;99.90
76787;DHT22;65739;51.482;5.702;2023-06-19T11:53:21;28.40;99.90
76787;DHT22;65739;51.482;5.702;2023-06-19T11:55:47;28.40;99.90
76787;DHT22;65739;51.482;5.702;2023-06-19T11:58:13;28.40;99.90
76787;DHT22;65739;51.482;5.702;2023-06-19T12:00:41;28.60;99.90
76787;DHT22;65739;51.482;5.702;2023-06-19T12:03:06;28.80;99.90
76787;DHT22;65739;51.482;5.702;2023-06-19T12:05:32;28.70;99.90
76787;DHT22;65739;51.482;5.702;2023-06-19T12:07:58;29.00;99.90
76787;DHT22;65739;51.482;5.702;2023-06-19T12:10:23;28.60;99.90
76787;DHT22;65739;51.482;5.702;2023-06-19T12:12:49;28.60;99.90
76787;DHT22;65739;51.482;5.702;2023-06-19T12:15:14;29.00;99.90
76787;DHT22;65739;51.482;5.702;2023-06-19T12:17:40;29.70;99.90
76787;DHT22;65739;51.482;5.702;2023-06-19T12:20:06;29.90;99.20
76787;DHT22;65739;51.482;5.702;2023-06-19T12:22:33;29.70;99.90
76787;DHT22;65739;51.482;5.702;2023-06-19T12:25:00;29.80;99.90
76787;DHT22;65739;51.482;5.702;2023-06-19T12:27:26;29.70;99.90
76787;DHT22;65739;51.482;5.702;2023-06-19T12:29:51;29.60;99.90
76787;DHT22;65739;51.482;5.702;2023-06-19T12:32:17;29.60;99.90
76787;DHT22;65739;51.482;5.702;2023-06-19T12:34:42;29.90;99.40
76787;DHT22;65739;51.482;5.702;2023-06-19T12:37:15;30.00;99.20
76787;DHT22;65739;51.482;5.702;2023-06-19T12:39:41;29.80;99.60
76787;DHT22;65739;51.482;5.702;2023-06-19T12:42:09;29.40;99.90
76787;DHT22;65739;51.482;5.702;2023-06-19T12:44:38;29.20;99.90
76787;DHT22;65739;51.482;5.702;2023-06-19T12:47:04;29.00;99.30
76787;DHT22;65739;51.482;5.702;2023-06-19T12:49:30;29.20;99.90
76787;DHT22;65739;51.482;5.702;2023-06-19T12:51:56;29.30;99.40
76787;DHT22;65739;51.482;5.702;2023-06-19T12:54:21;29.00;99.90
76787;DHT22;65739;51.482;5.702;2023-06-19T12:56:47;29.50;99.90
76787;DHT22;65739;51.482;5.702;2023-06-19T12:59:13;30.10;99.30
76787;DHT22;65739;51.482;5.702;2023-06-19T13:01:38;30.20;99.50
76787;DHT22;65739;51.482;5.702;2023-06-19T13:04:04;29.90;98.40
76787;DHT22;65739;51.482;5.702;2023-06-19T13:06:29;30.00;98.90
76787;DHT22;65739;51.482;5.702;2023-06-19T13:08:55;29.90;98.60
76787;DHT22;65739;51.482;5.702;2023-06-19T13:11:20;30.20;98.20
76787;DHT22;65739;51.482;5.702;2023-06-19T13:13:46;30.40;97.90
76787;DHT22;65739;51.482;5.702;2023-06-19T13:16:11;30.60;97.60
76787;DHT22;65739;51.482;5.702;2023-06-19T13:18:37;30.60;97.30
76787;DHT22;65739;51.482;5.702;2023-06-19T13:21:02;30.30;97.30
76787;DHT22;65739;51.482;5.702;2023-06-19T13:23:28;30.10;96.70
76787;DHT22;65739;51.482;5.702;2023-06-19T13:25:56;29.70;95.70
76787;DHT22;65739;51.482;5.702;2023-06-19T13:28:21;29.60;96.00
76787;DHT22;65739;51.482;5.702;2023-06-19T13:30:47;29.80;96.30
76787;DHT22;65739;51.482;5.702;2023-06-19T13:33:12;30.00;97.20
76787;DHT22;65739;51.482;5.702;2023-06-19T13:35:38;30.00;96.90
76787;DHT22;65739;51.482;5.702;2023-06-19T13:38:03;30.20;97.70
76787;DHT22;65739;51.482;5.702;2023-06-19T13:40:29;30.10;97.30
76787;DHT22;65739;51.482;5.702;2023-06-19T13:42:55;29.90;97.80
76787;DHT22;65739;51.482;5.702;2023-06-19T13:45:21;29.90;97.30
76787;DHT22;65739;51.482;5.702;2023-06-19T13:47:47;29.60;97.40
76787;DHT22;65739;51.482;5.702;2023-06-19T13:50:12;29.80;97.20
76787;DHT22;65739;51.482;5.702;2023-06-19T13:52:44;30.00;97.50
76787;DHT22;65739;51.482;5.702;2023-06-19T13:55:10;30.70;97.80
76787;DHT22;65739;51.482;5.702;2023-06-19T13:57:35;31.10;96.80
76787;DHT22;65739;51.482;5.702;2023-06-19T14:00:02;31.10;96.70
76787;DHT22;65739;51.482;5.702;2023-06-19T14:02:28;30.70;96.20
76787;DHT22;65739;51.482;5.702;2023-06-19T14:04:54;30.80;96.50
76787;DHT22;65739;51.482;5.702;2023-06-19T14:07:20;31.30;96.40
76787;DHT22;65739;51.482;5.702;2023-06-19T14:09:48;31.10;96.00
76787;DHT22;65739;51.482;5.702;2023-06-19T14:12:13;31.00;96.80
76787;DHT22;65739;51.482;5.702;2023-06-19T14:14:39;31.00;96.50
76787;DHT22;65739;51.482;5.702;2023-06-19T14:17:05;31.00;95.90
76787;DHT22;65739;51.482;5.702;2023-06-19T14:19:31;31.20;95.60
76787;DHT22;65739;51.482;5.702;2023-06-19T14:21:56;31.80;96.00
76787;DHT22;65739;51.482;5.702;2023-06-19T14:24:22;31.40;95.80
76787;DHT22;65739;51.482;5.702;2023-06-19T16:10:30;34.10;92.00
76787;DHT22;65739;51.482;5.702;2023-06-19T16:12:56;34.40;91.50
76787;DHT22;65739;51.482;5.702;2023-06-19T16:15:21;33.80;91.60
76787;DHT22;65739;51.482;5.702;2023-06-19T16:17:53;33.90;91.00
76787;DHT22;65739;51.482;5.702;2023-06-19T16:20:20;34.60;91.90
76787;DHT22;65739;51.482;5.702;2023-06-19T16:22:46;34.90;90.50
76787;DHT22;65739;51.482;5.702;2023-06-19T16:25:12;34.00;90.90
76787;DHT22;65739;51.482;5.702;2023-06-19T16:27:37;33.40;91.10
76787;DHT22;65739;51.482;5.702;2023-06-19T16:30:03;33.40;90.80
76787;DHT22;65739;51.482;5.702;2023-06-19T16:32:29;33.50;90.90
76787;DHT22;65739;51.482;5.702;2023-06-19T16:34:55;33.70;90.90
76787;DHT22;65739;51.482;5.702;2023-06-19T16:37:20;33.60;90.50
76787;DHT22;65739;51.482;5.702;2023-06-19T16:39:46;32.90;91.10
76787;DHT22;65739;51.482;5.702;2023-06-19T16:42:11;32.60;90.90
76787;DHT22;65739;51.482;5.702;2023-06-19T16:44:38;33.00;91.10
76787;DHT22;65739;51.482;5.702;2023-06-19T16:47:03;33.00;91.20
76787;DHT22;65739;51.482;5.702;2023-06-19T16:49:29;33.20;91.40
76787;DHT22;65739;51.482;5.702;2023-06-19T16:51:54;33.40;91.50
76787;DHT22;65739;51.482;5.702;2023-06-19T16:54:20;33.60;91.40
76787;DHT22;65739;51.482;5.702;2023-06-19T16:56:45;33.80;90.70
76787;DHT22;65739;51.482;5.702;2023-06-19T16:59:11;34.00;90.30
76787;DHT22;65739;51.482;5.702;2023-06-19T17:01:37;33.80;90.60
76787;DHT22;65739;51.482;5.702;2023-06-19T17:04:02;33.80;90.40
76787;DHT22;65739;51.482;5.702;2023-06-19T17:06:28;33.90;90.70
76787;DHT22;65739;51.482;5.702;2023-06-19T17:08:54;33.60;90.90
76787;DHT22;65739;51.482;5.702;2023-06-19T17:11:19;33.30;90.40